Time;durP1;ratioP1;P1;durP2;ratioP2;P2;SDS_P1;SDS_P2;PMS_P1;PMS_P2;Temp;Humidity;BMP_temperature;BMP_pressure;BME280_temperature;BME280_humidity;BME280_pressure;Samples;Min_cycle;Max_cycle;Signal;HPM_P1;HPM_P2
2022/08/05 00:00:53;;;;;;;6.33;3.23;;;;;;;19.65;75.61;93802.78;4994645;28;20318;-72
2022/08/05 00:03:37;;;;;;;6.07;3.27;;;;;;;19.62;75.37;93801.97;5003776;28;20200;-72
2022/08/05 00:06:22;;;;;;;5.30;3.20;;;;;;;19.57;76.20;93806.03;5006843;28;20224;-72
2022/08/05 00:09:06;;;;;;;5.60;3.20;;;;;;;19.50;76.17;93801.53;5005057;28;20212;-72
2022/08/05 00:11:50;;;;;;;4.77;3.00;;;;;;;19.52;75.71;93803.72;5005445;28;20759;-72
2022/08/05 00:14:34;;;;;;;4.47;3.33;;;;;;;19.58;75.48;93796.13;5008235;28;20199;-72
2022/08/05 00:17:18;;;;;;;4.37;3.00;;;;;;;19.60;75.33;93799.06;5007476;28;20243;-72
2022/08/05 00:20:03;;;;;;;7.73;2.67;;;;;;;19.63;74.54;93797.72;5008670;28;20668;-72
2022/08/05 00:22:47;;;;;;;3.40;2.90;;;;;;;19.70;73.91;93790.88;5008041;28;20215;-72
2022/08/05 00:25:31;;;;;;;4.30;3.10;;;;;;;19.74;72.83;93791.03;5005614;28;20667;-72
2022/08/05 00:28:17;;;;;;;2.80;2.60;;;;;;;19.79;74.07;93792.63;5008425;28;20204;-72
2022/08/05 00:31:02;;;;;;;5.67;3.20;;;;;;;19.83;73.66;93792.03;5008681;28;20207;-72
2022/08/05 00:33:46;;;;;;;5.77;3.60;;;;;;;19.87;73.24;93794.31;5006615;28;20232;-72
2022/08/05 00:36:30;;;;;;;4.30;2.73;;;;;;;19.81;72.50;93782.72;5005524;28;20660;-72
2022/08/05 00:39:14;;;;;;;5.70;2.83;;;;;;;19.79;72.63;93789.78;5010761;28;20270;-72
2022/08/05 00:41:58;;;;;;;3.73;2.53;;;;;;;19.73;72.73;93786.72;5010624;28;20218;-72
2022/08/05 00:44:43;;;;;;;6.50;3.27;;;;;;;19.71;72.93;93786.66;5005626;28;20212;-72
2022/08/05 00:47:27;;;;;;;3.20;3.00;;;;;;;19.61;72.94;93780.63;5007330;28;20200;-71
2022/08/05 00:50:11;;;;;;;6.83;3.20;;;;;;;19.54;73.45;93787.47;5010637;28;20215;-71
2022/08/05 00:52:55;;;;;;;2.73;2.53;;;;;;;19.48;73.91;93781.56;5010030;28;20757;-72
2022/08/05 00:55:40;;;;;;;3.57;3.13;;;;;;;19.44;74.35;93775.72;5006387;28;20204;-73
2022/08/05 00:58:24;;;;;;;3.23;2.80;;;;;;;19.41;74.02;93782.72;5009051;28;20211;-72
2022/08/05 01:01:10;;;;;;;4.27;3.00;;;;;;;19.41;73.98;93782.72;5006736;28;20207;-72
2022/08/05 01:03:54;;;;;;;3.40;3.10;;;;;;;19.39;74.34;93785.47;5008859;28;20677;-73
2022/08/05 01:06:38;;;;;;;5.77;2.70;;;;;;;19.34;74.61;93790.28;5008521;28;20584;-72
2022/08/05 01:09:22;;;;;;;6.93;3.37;;;;;;;19.26;75.15;93789.97;5008171;28;20206;-72
2022/08/05 01:12:13;;;;;;;4.37;2.97;;;;;;;19.19;75.77;93785.47;5008480;28;20577;-72
2022/08/05 01:15:04;;;;;;;5.17;2.60;;;;;;;19.25;75.32;93782.13;5008509;28;20704;-72
2022/08/05 01:17:58;;;;;;;3.93;2.73;;;;;;;19.42;74.03;93789.84;5007966;28;20656;-72
2022/08/05 01:21:01;;;;;;;4.67;3.20;;;;;;;19.44;73.69;93781.41;5022109;28;20269;-72
2022/08/05 01:24:15;;;;;;;5.73;2.87;;;;;;;19.41;74.08;93785.56;5005526;28;20203;-72
2022/08/05 01:26:59;;;;;;;6.27;3.50;;;;;;;19.31;75.15;93790.88;5007806;28;20676;-72
2022/08/05 01:29:48;;;;;;;3.20;2.90;;;;;;;19.26;75.20;93789.97;5008022;28;20646;-72
2022/08/05 01:32:34;;;;;;;3.47;2.97;;;;;;;19.25;75.04;93793.50;5002476;28;20228;-72
2022/08/05 01:35:24;;;;;;;4.23;3.00;;;;;;;19.24;75.37;93787.06;5003304;28;20206;-71
2022/08/05 01:38:09;;;;;;;4.50;2.90;;;;;;;19.27;74.88;93782.91;5006064;28;20211;-71
2022/08/05 01:40:56;;;;;;;3.27;2.97;;;;;;;19.25;74.80;93788.53;5007302;28;20211;-72
2022/08/05 01:43:40;;;;;;;5.70;2.83;;;;;;;19.26;74.85;93789.25;5006366;28;20223;-72
2022/08/05 01:46:27;;;;;;;5.90;2.97;;;;;;;19.26;74.98;93775.03;5008155;28;20661;-71
2022/08/05 01:49:19;;;;;;;3.90;3.60;;;;;;;19.23;75.44;93784.88;5007184;28;20211;-71
2022/08/05 01:52:03;;;;;;;7.50;3.53;;;;;;;19.22;75.58;93784.16;5007881;28;20233;-72
2022/08/05 01:54:52;;;;;;;3.97;3.00;;;;;;;19.18;76.03;93783.28;5005505;28;20231;-71
2022/08/05 01:57:43;;;;;;;5.30;3.33;;;;;;;19.26;75.12;93783.56;5004849;28;20200;-71
2022/08/05 02:00:30;;;;;;;4.40;3.07;;;;;;;19.33;74.43;93782.41;5007260;28;20207;-72
2022/08/05 02:03:32;;;;;;;6.90;3.50;;;;;;;19.35;74.17;93785.31;5003709;28;20483;-72
2022/08/05 02:06:17;;;;;;;3.33;3.03;;;;;;;19.29;74.48;93788.69;5007457;28;20219;-72
2022/08/05 02:09:02;;;;;;;6.23;3.00;;;;;;;19.18;75.56;93783.28;5007049;28;20203;-72
2022/08/05 02:11:54;;;;;;;5.63;3.27;;;;;;;19.05;76.13;93792.72;5003212;28;20232;-72
2022/08/05 02:14:52;;;;;;;3.40;3.10;;;;;;;19.03;76.06;93786.97;5006670;28;20204;-72
2022/08/05 02:18:01;;;;;;;3.30;3.07;;;;;;;19.09;75.47;93787.19;5004915;28;20664;-72
2022/08/05 02:20:53;;;;;;;2.70;2.50;;;;;;;19.08;75.63;93792.13;5005788;28;20208;-72
2022/08/05 02:23:39;;;;;;;2.90;2.70;;;;;;;19.04;75.67;93789.16;5005357;28;20208;-72
2022/08/05 02:26:32;;;;;;;3.67;2.90;;;;;;;19.01;75.67;93792.59;5004841;28;20201;-72
2022/08/05 02:29:20;;;;;;;2.67;2.47;;;;;;;18.95;75.55;93790.94;5005483;28;20212;-71
2022/08/05 02:32:08;;;;;;;7.40;3.47;;;;;;;18.89;76.25;93787.88;5007340;28;20224;-71
2022/08/05 02:34:53;;;;;;;3.30;3.00;;;;;;;18.90;75.90;93800.69;5004387;28;20672;-72
2022/08/05 02:37:40;;;;;;;3.00;2.80;;;;;;;18.91;75.98;93790.81;5005219;28;20660;-72
2022/08/05 02:40:24;;;;;;;5.90;3.60;;;;;;;18.92;75.78;93786.59;5009066;28;20199;-71
2022/08/05 02:43:12;;;;;;;3.73;2.93;;;;;;;18.84;75.64;93780.59;5005841;28;20208;-71
2022/08/05 02:45:58;;;;;;;3.07;2.77;;;;;;;18.71;77.12;93790.03;5003389;28;20223;-72
2022/08/05 02:48:46;;;;;;;10.07;3.33;;;;;;;18.49;78.65;93786.28;5004533;28;20199;-72
2022/08/05 02:51:31;;;;;;;6.03;3.20;;;;;;;18.52;78.68;93787.81;5003443;28;20203;-72
2022/08/05 02:54:15;;;;;;;3.57;2.87;;;;;;;18.57;78.15;93789.50;5004018;28;20210;-72
2022/08/05 02:57:01;;;;;;;3.10;2.80;;;;;;;18.65;77.65;93781.28;5009586;28;20199;-72
2022/08/05 02:59:47;;;;;;;3.00;2.80;;;;;;;18.66;77.09;93782.72;5006602;28;20664;-72
2022/08/05 03:02:35;;;;;;;4.10;2.90;;;;;;;18.68;77.47;93779.25;5004338;28;20278;-72
2022/08/05 03:05:20;;;;;;;4.33;3.10;;;;;;;18.46;78.82;93779.06;5007663;28;20302;-72
2022/08/05 03:08:05;;;;;;;4.03;3.43;;;;;;;18.49;78.71;93786.28;5009358;28;20196;-72
2022/08/05 03:10:49;;;;;;;6.67;3.40;;;;;;;18.45;78.93;93774.78;5006490;28;20290;-72
2022/08/05 03:13:33;;;;;;;4.53;3.03;;;;;;;18.44;78.91;93787.50;5008881;28;20227;-72
2022/08/05 03:16:18;;;;;;;4.33;3.50;;;;;;;18.46;78.68;93779.06;5006499;28;20713;-72
2022/08/05 03:19:03;;;;;;;5.77;3.47;;;;;;;18.48;78.77;93784.84;5008780;28;20239;-72
2022/08/05 03:21:47;;;;;;;3.40;3.10;;;;;;;18.49;78.26;93783.47;5004480;28;20620;-71
2022/08/05 03:24:31;;;;;;;4.33;3.50;;;;;;;18.55;78.41;93784.47;4997979;28;20204;-72
2022/08/05 03:27:15;;;;;;;3.37;3.07;;;;;;;18.47;78.59;93777.69;5007777;28;20232;-72
2022/08/05 03:30:00;;;;;;;7.93;3.57;;;;;;;18.36;79.02;93784.34;4998425;28;20203;-72
2022/08/05 03:32:44;;;;;;;3.23;2.93;;;;;;;18.28;80.17;93767.00;5012556;28;20222;-71
2022/08/05 03:35:30;;;;;;;5.03;3.50;;;;;;;18.15;80.96;93772.19;4995649;28;20294;-71
2022/08/05 03:38:16;;;;;;;3.27;2.93;;;;;;;18.18;81.25;93765.22;5006328;28;20199;-72
2022/08/05 03:41:00;;;;;;;5.30;3.20;;;;;;;18.26;80.59;93769.78;4999907;28;20200;-71
2022/08/05 03:43:44;;;;;;;3.77;3.40;;;;;;;18.31;80.41;93771.38;5002896;28;20204;-72
2022/08/05 03:46:28;;;;;;;4.50;3.60;;;;;;;18.37;79.88;93775.19;5003236;28;20196;-72
2022/08/05 03:49:13;;;;;;;7.60;3.80;;;;;;;18.45;79.45;93775.50;4996025;28;20261;-71
2022/08/05 03:52:03;;;;;;;4.23;3.60;;;;;;;18.54;79.12;93779.41;5002307;28;20227;-72
2022/08/05 03:55:00;;;;;;;4.50;3.13;;;;;;;18.70;78.15;93782.88;4996665;28;20223;-71
2022/08/05 03:57:46;;;;;;;4.90;3.20;;;;;;;18.83;77.30;93796.16;5003633;28;20196;-72
2022/08/05 04:00:31;;;;;;;6.37;3.20;;;;;;;19.12;75.61;93815.03;5011099;28;20199;-71
2022/08/05 04:03:16;;;;;;;6.00;3.30;;;;;;;19.62;71.54;93818.31;5006976;28;20203;-71
2022/08/05 04:06:02;;;;;;;3.50;2.63;;;;;;;19.82;70.11;93832.50;5008539;28;20223;-73
2022/08/05 04:08:48;;;;;;;2.60;2.40;;;;;;;20.73;65.35;93852.69;5010081;28;20203;-72
2022/08/05 04:11:33;;;;;;;2.60;2.40;;;;;;;22.09;60.19;93843.25;4999695;28;20470;-72
2022/08/05 04:14:18;;;;;;;2.23;2.13;;;;;;;22.23;59.21;93840.00;5002276;28;20473;-72
2022/08/05 04:17:03;;;;;;;4.23;2.80;;;;;;;22.41;58.40;93837.63;5005432;28;20657;-72
2022/08/05 04:19:47;;;;;;;4.65;2.63;;;;;;;22.44;58.44;93844.88;4999996;28;20207;-72
2022/08/05 04:22:31;;;;;;;5.93;2.33;;;;;;;22.52;58.28;93836.50;5005063;28;20218;-72
2022/08/05 04:25:15;;;;;;;4.60;2.60;;;;;;;22.68;57.66;93831.19;5005968;28;20208;-72
2022/08/05 04:28:00;;;;;;;4.78;2.42;;;;;;;23.45;56.05;93838.72;5004213;28;20195;-72
2022/08/05 04:30:44;;;;;;;3.40;2.63;;;;;;;23.35;56.20;93832.78;5009978;28;20196;-72
2022/08/05 04:33:28;;;;;;;6.35;2.45;;;;;;;23.63;55.06;93841.28;5000594;28;20260;-71
2022/08/05 04:36:14;;;;;;;2.88;2.00;;;;;;;24.52;52.14;93835.16;4997782;28;20199;-72
2022/08/05 04:38:58;;;;;;;2.85;2.28;;;;;;;24.07;52.85;93841.47;5011257;28;20196;-72
2022/08/05 04:41:42;;;;;;;8.48;2.60;;;;;;;24.85;51.03;93832.84;5008514;28;20191;-72
2022/08/05 04:44:26;;;;;;;3.15;2.30;;;;;;;24.79;51.10;93847.06;5001313;28;20763;-72
2022/08/05 04:47:10;;;;;;;6.43;2.70;;;;;;;24.53;52.20;93839.47;5007053;28;20208;-73
2022/08/05 04:49:54;;;;;;;3.03;2.10;;;;;;;24.64;52.05;93842.50;5001960;28;20287;-72
2022/08/05 04:52:38;;;;;;;3.05;2.67;;;;;;;24.59;52.40;93845.31;5006494;28;20231;-72
2022/08/05 04:55:22;;;;;;;3.10;2.53;;;;;;;24.77;51.76;93844.16;5008081;28;20200;-72
2022/08/05 04:58:09;;;;;;;4.00;2.25;;;;;;;24.81;51.58;93844.94;5009229;28;20203;-72
2022/08/05 05:00:53;;;;;;;2.30;2.10;;;;;;;25.01;51.04;93850.31;5006714;28;20679;-73
2022/08/05 05:03:37;;;;;;;2.40;2.20;;;;;;;24.91;51.12;93833.69;5006474;28;20195;-78
2022/08/05 05:06:22;;;;;;;4.53;2.20;;;;;;;25.27;50.46;93842.13;5002017;28;20212;-72
2022/08/05 05:09:06;;;;;;;2.33;2.10;;;;;;;25.56;48.93;93845.38;5004062;28;20207;-72
2022/08/05 05:11:50;;;;;;;1.83;1.73;;;;;;;25.56;50.18;93851.84;5006577;28;20227;-75
2022/08/05 05:14:34;;;;;;;2.90;2.42;;;;;;;25.78;48.88;93857.22;5004378;28;20196;-75
2022/08/05 05:17:19;;;;;;;4.97;2.28;;;;;;;25.69;50.00;93864.97;5004862;28;20208;-74
2022/08/05 05:20:04;;;;;;;2.40;1.88;;;;;;;25.82;49.64;93859.41;5006655;28;20620;-72
2022/08/05 05:22:48;;;;;;;5.28;2.47;;;;;;;26.02;49.07;93863.25;5004939;28;20278;-75
2022/08/05 05:25:32;;;;;;;3.45;2.25;;;;;;;25.93;48.98;93872.47;4999170;28;20617;-73
2022/08/05 05:28:17;;;;;;;3.50;2.50;;;;;;;26.01;49.43;93870.44;5004085;28;20688;-72
2022/08/05 05:31:01;;;;;;;2.70;2.05;;;;;;;25.89;49.02;93861.66;5001420;28;20204;-74
2022/08/05 05:33:45;;;;;;;4.15;1.98;;;;;;;25.61;49.40;93867.03;5002532;28;20223;-74
2022/08/05 05:36:30;;;;;;;2.67;2.03;;;;;;;25.55;49.63;93864.75;4996219;28;20200;-75
2022/08/05 05:39:14;;;;;;;2.58;2.20;;;;;;;25.49;49.94;93869.72;5010271;28;20215;-75
2022/08/05 05:41:58;;;;;;;7.20;2.28;;;;;;;25.51;50.51;93878.31;5005743;28;20235;-74
2022/08/05 05:44:43;;;;;;;4.22;2.42;;;;;;;25.46;50.41;93874.69;4993368;28;20305;-72
2022/08/05 05:47:27;;;;;;;2.92;2.33;;;;;;;25.67;49.51;93875.72;5004223;28;20222;-73
2022/08/05 05:50:14;;;;;;;5.25;2.05;;;;;;;26.06;48.45;93871.91;5007601;28;20368;-74
2022/08/05 05:52:58;;;;;;;5.82;2.25;;;;;;;26.14;48.45;93874.16;5001108;28;20218;-75
2022/08/05 05:55:42;;;;;;;2.65;2.13;;;;;;;26.69;48.45;93872.66;5008928;28;20242;-72
2022/08/05 05:58:26;;;;;;;2.47;2.25;;;;;;;26.91;46.96;93875.75;4997125;28;20600;-73
2022/08/05 06:01:10;;;;;;;6.68;2.20;;;;;;;27.03;46.68;93878.03;5005369;28;20207;-73
2022/08/05 06:03:55;;;;;;;2.30;2.00;;;;;;;26.89;47.57;93881.50;5003541;28;20659;-72
2022/08/05 06:06:41;;;;;;;4.85;2.10;;;;;;;27.39;47.01;93874.72;5008291;28;20282;-73
2022/08/05 06:09:25;;;;;;;3.63;2.22;;;;;;;27.81;45.92;93882.19;5004159;28;20208;-75
2022/08/05 06:12:09;;;;;;;3.85;2.25;;;;;;;27.63;45.47;93880.66;4995585;28;20231;-74
2022/08/05 06:14:53;;;;;;;2.95;2.13;;;;;;;28.21;44.34;93876.66;5003943;28;20207;-73
2022/08/05 06:17:39;;;;;;;2.47;2.05;;;;;;;27.30;46.50;93878.97;4998993;28;20200;-75
2022/08/05 06:20:23;;;;;;;2.38;2.17;;;;;;;27.20;47.02;93887.53;5003557;28;20196;-74
2022/08/05 06:23:07;;;;;;;5.25;2.10;;;;;;;27.08;47.54;93893.16;5008359;28;20227;-75
2022/08/05 06:25:52;;;;;;;8.23;2.05;;;;;;;26.86;47.34;93903.00;5005396;28;20199;-75
2022/08/05 06:28:36;;;;;;;6.43;1.92;;;;;;;27.30;47.05;93910.59;4999010;28;20200;-73
2022/08/05 06:31:21;;;;;;;3.60;2.00;;;;;;;27.21;50.03;93909.09;5008622;28;20215;-73
2022/08/05 06:34:05;;;;;;;2.17;1.88;;;;;;;26.89;47.72;93907.38;4999834;28;20211;-72
2022/08/05 06:36:49;;;;;;;2.03;1.92;;;;;;;27.10;48.64;93907.56;5000637;28;20218;-73
2022/08/05 06:39:34;;;;;;;2.42;2.22;;;;;;;27.20;48.16;93911.25;4998100;28;20204;-74
2022/08/05 06:42:18;;;;;;;3.60;2.22;;;;;;;27.13;46.58;93923.41;4994884;28;20287;-74
2022/08/05 06:45:02;;;;;;;4.63;2.50;;;;;;;26.91;48.05;93933.25;4997016;28;20197;-75
2022/08/05 06:47:46;;;;;;;2.15;2.03;;;;;;;26.73;49.20;93923.69;5005168;28;20204;-73
2022/08/05 06:50:30;;;;;;;3.17;2.17;;;;;;;26.62;48.33;93925.75;5010947;28;20660;-72
2022/08/05 06:53:14;;;;;;;4.00;2.13;;;;;;;26.75;48.10;93927.34;5004671;28;20640;-75
2022/08/05 06:55:59;;;;;;;3.22;2.05;;;;;;;26.54;48.86;93919.91;5003400;28;20210;-74
2022/08/05 06:58:43;;;;;;;2.53;2.10;;;;;;;26.69;47.87;93924.38;4999649;28;20710;-75
2022/08/05 07:01:27;;;;;;;2.22;2.03;;;;;;;26.45;48.71;93924.13;5000562;28;20204;-75
2022/08/05 07:04:12;;;;;;;6.05;2.30;;;;;;;26.61;48.52;93930.03;5001506;28;20212;-74
2022/08/05 07:06:55;;;;;;;4.47;2.05;;;;;;;26.59;49.85;93932.91;5012300;28;20199;-72
2022/08/05 07:09:40;;;;;;;2.55;1.92;;;;;;;26.74;48.61;93930.91;5027123;28;20204;-74
2022/08/05 07:18:29;;;;;;;2.20;2.00;;;;;;;26.63;50.63;93950.19;5007572;28;20203;-75
2022/08/05 07:21:13;;;;;;;6.32;2.28;;;;;;;26.96;49.95;93952.03;5007563;28;20214;-73
2022/08/05 07:23:58;;;;;;;2.83;2.35;;;;;;;27.13;48.71;93963.69;5012557;28;20203;-74
2022/08/05 07:26:43;;;;;;;2.50;2.05;;;;;;;27.29;48.28;93969.59;5004279;28;20656;-73
2022/08/05 07:29:27;;;;;;;4.47;2.20;;;;;;;27.22;47.28;93965.22;5020299;28;20203;-73
2022/08/05 07:32:11;;;;;;;2.08;1.98;;;;;;;27.03;47.92;93981.59;5011145;28;20310;-72
2022/08/05 07:34:55;;;;;;;2.25;2.03;;;;;;;27.12;47.84;93991.00;5002015;28;20207;-74
2022/08/05 07:37:40;;;;;;;3.60;2.13;;;;;;;27.28;48.12;93985.44;5006144;28;20579;-73
2022/08/05 07:40:24;;;;;;;2.63;1.90;;;;;;;27.23;48.35;93999.03;5012704;28;20204;-72
2022/08/05 07:43:09;;;;;;;3.03;2.22;;;;;;;27.18;47.77;93999.69;5001772;28;20208;-74
2022/08/05 07:45:53;;;;;;;3.17;2.08;;;;;;;27.23;48.44;93995.41;5001781;28;20235;-73
2022/08/05 07:48:38;;;;;;;3.45;2.15;;;;;;;27.18;48.04;93993.94;5026519;28;20672;-72
2022/08/05 07:51:22;;;;;;;3.30;2.35;;;;;;;27.36;48.18;94002.75;5001226;28;20595;-75
2022/08/05 07:54:07;;;;;;;2.70;2.50;;;;;;;27.05;48.94;94016.09;5010528;28;20207;-72
2022/08/05 07:56:51;;;;;;;7.30;2.40;;;;;;;27.42;48.15;94034.47;5006671;28;20204;-74
2022/08/05 07:59:35;;;;;;;6.40;2.67;;;;;;;27.39;48.27;94047.41;5006992;28;20203;-75
2022/08/05 08:02:26;;;;;;;4.13;2.42;;;;;;;27.19;48.54;94029.91;5006003;28;20680;-72
2022/08/05 08:05:10;;;;;;;2.65;2.17;;;;;;;27.04;48.32;94031.19;5009856;28;20650;-74
2022/08/05 08:07:54;;;;;;;12.65;2.60;;;;;;;27.14;48.38;94037.06;5005216;28;20266;-73
2022/08/05 08:10:39;;;;;;;2.85;2.45;;;;;;;27.01;48.07;94055.63;5002269;28;20287;-73
2022/08/05 08:13:22;;;;;;;9.73;2.67;;;;;;;26.89;48.23;94048.28;5001126;28;20224;-75
2022/08/05 08:16:07;;;;;;;6.70;3.05;;;;;;;26.19;48.07;94054.50;5004277;28;20211;-65
2022/08/05 08:18:50;;;;;;;5.13;2.92;;;;;;;26.28;48.73;94043.16;5007572;28;20207;-74
2022/08/05 08:21:34;;;;;;;7.38;3.25;;;;;;;26.93;48.22;94050.47;5009190;28;20200;-74
2022/08/05 08:24:19;;;;;;;9.45;2.60;;;;;;;27.03;46.95;94058.53;5010665;28;20207;-73
2022/08/05 08:27:04;;;;;;;3.30;2.67;;;;;;;27.06;47.89;94045.59;5000186;28;20199;-74
2022/08/05 08:29:48;;;;;;;17.15;3.40;;;;;;;27.12;47.38;94057.16;5003193;28;20200;-74
2022/08/05 08:32:35;;;;;;;2.92;2.70;;;;;;;27.25;47.71;94058.75;5001801;28;20716;-77
2022/08/05 08:35:19;;;;;;;10.18;3.10;;;;;;;26.77;48.10;94056.75;4984694;28;20204;-76
2022/08/05 08:38:04;;;;;;;6.90;3.40;;;;;;;27.17;46.93;94067.28;5009526;28;20200;-74
2022/08/05 08:40:48;;;;;;;14.10;3.25;;;;;;;26.69;47.74;94085.38;5007932;28;20235;-76
2022/08/05 08:43:34;;;;;;;9.18;3.35;;;;;;;26.58;48.04;94080.94;5003980;28;20200;-76
2022/08/05 08:46:18;;;;;;;4.32;3.15;;;;;;;27.13;47.39;94085.25;5000209;28;20278;-73
2022/08/05 08:49:03;;;;;;;6.07;3.50;;;;;;;27.17;47.57;94096.06;5008069;28;20200;-75
2022/08/05 08:51:53;;;;;;;8.05;3.40;;;;;;;27.21;47.15;94096.13;5010986;28;20203;-74
2022/08/05 08:54:38;;;;;;;4.80;3.70;;;;;;;26.81;47.97;94097.03;4998867;28;20196;-79
2022/08/05 08:57:24;;;;;;;7.18;3.40;;;;;;;27.08;47.41;94101.00;4999926;28;20227;-74
2022/08/05 09:00:08;;;;;;;6.80;3.55;;;;;;;27.45;47.17;94099.25;5000046;28;20291;-79
2022/08/05 09:02:56;;;;;;;6.68;3.53;;;;;;;27.51;46.93;94099.34;4996967;28;20231;-72
2022/08/05 09:05:40;;;;;;;5.88;3.80;;;;;;;27.76;47.08;94109.69;5001153;28;20212;-72
2022/08/05 09:08:24;;;;;;;5.32;3.33;;;;;;;28.36;45.91;94110.91;5009924;28;20204;-72
2022/08/05 09:11:09;;;;;;;6.63;3.80;;;;;;;28.84;45.02;94110.53;5021819;28;20214;-74
2022/08/05 09:13:54;;;;;;;17.50;3.58;;;;;;;28.96;45.05;94117.09;4993098;28;20278;-72
2022/08/05 09:16:39;;;;;;;10.23;3.00;;;;;;;29.70;44.64;94112.31;5000122;28;20207;-73
2022/08/05 09:19:23;;;;;;;5.95;3.35;;;;;;;29.17;43.95;94120.06;4994817;28;20319;-73
2022/08/05 09:22:07;;;;;;;7.78;3.17;;;;;;;29.04;44.11;94127.22;5004059;28;20708;-73
2022/08/05 09:25:01;;;;;;;13.23;4.90;;;;;;;29.69;44.38;94122.41;5006635;28;20207;-72
2022/08/05 09:27:45;;;;;;;11.07;7.10;;;;;;;29.33;44.00;94123.75;4997378;28;20322;-72
2022/08/05 09:30:29;;;;;;;7.90;4.00;;;;;;;29.17;44.27;94123.69;5002422;28;20641;-71
2022/08/05 09:33:13;;;;;;;7.80;3.40;;;;;;;28.90;43.63;94131.47;5006820;28;20223;-73
2022/08/05 09:36:04;;;;;;;6.18;4.03;;;;;;;28.91;43.35;94132.19;4996880;28;20617;-74
2022/08/05 09:38:57;;;;;;;11.65;6.38;;;;;;;28.64;44.95;94124.81;5006060;28;20215;-74
2022/08/05 09:42:02;;;;;;;13.80;5.30;;;;;;;28.20;46.17;94125.94;5005318;28;20286;-73
2022/08/05 09:44:49;;;;;;;22.10;16.73;;;;;;;28.50;45.13;94126.16;4994406;28;20207;-73
2022/08/05 09:47:33;;;;;;;15.13;7.43;;;;;;;28.44;45.30;94137.66;5002185;28;20362;-75
2022/08/05 09:50:19;;;;;;;11.95;7.22;;;;;;;28.44;45.82;94134.78;5023218;28;20577;-71
2022/08/05 09:53:03;;;;;;;7.53;3.22;;;;;;;28.73;45.17;94126.31;5004537;28;20309;-73
2022/08/05 09:55:51;;;;;;;8.05;4.25;;;;;;;28.72;44.88;94127.72;5010322;28;20285;-73
2022/08/05 09:58:35;;;;;;;11.32;4.03;;;;;;;28.32;45.80;94128.19;5003867;28;20203;-73
2022/08/05 10:01:19;;;;;;;8.00;3.22;;;;;;;28.68;44.91;94127.72;4998990;28;20204;-72
2022/08/05 10:04:12;;;;;;;32.47;19.95;;;;;;;28.36;46.65;94128.22;4996648;28;20195;-73
2022/08/05 10:06:56;;;;;;;7.53;3.63;;;;;;;28.06;46.40;94148.84;4995041;28;20205;-75
2022/08/05 10:09:54;;;;;;;8.50;2.92;;;;;;;27.97;46.52;94147.31;4998597;28;20735;-72
2022/08/05 10:12:40;;;;;;;4.18;2.70;;;;;;;28.31;44.18;94150.53;4994290;28;20599;-77
2022/08/05 10:15:25;;;;;;;8.25;2.97;;;;;;;28.45;44.51;94141.97;5001601;28;20200;-73
2022/08/05 10:18:21;;;;;;;10.18;2.83;;;;;;;29.39;43.27;94145.44;5003634;28;20621;-73
2022/08/05 10:21:06;;;;;;;11.18;3.42;;;;;;;28.38;44.49;94143.38;5000281;28;20200;-74
2022/08/05 10:23:51;;;;;;;10.55;3.28;;;;;;;28.64;43.40;94139.94;4992886;28;20197;-73
2022/08/05 10:26:35;;;;;;;7.72;2.88;;;;;;;29.13;44.04;94143.16;4999125;28;20208;-72
2022/08/05 10:29:21;;;;;;;4.95;2.95;;;;;;;28.82;43.41;94148.03;4998378;28;20203;-74
2022/08/05 10:32:06;;;;;;;7.05;2.85;;;;;;;29.69;42.32;94134.69;5002217;28;20224;-76
2022/08/05 10:34:50;;;;;;;6.85;3.03;;;;;;;29.42;43.66;94136.06;4992853;28;20196;-73
2022/08/05 10:37:34;;;;;;;10.63;3.63;;;;;;;30.31;41.21;94135.50;5006227;28;20202;-74
2022/08/05 10:40:49;;;;;;;11.68;4.25;;;;;;;29.65;41.23;94125.31;4992507;28;20200;-73
2022/08/05 10:43:42;;;;;;;7.85;4.28;;;;;;;30.13;39.71;94134.06;4988480;28;20210;-74
2022/08/05 10:46:44;;;;;;;6.85;2.60;;;;;;;29.80;40.24;94126.78;5000367;28;20235;-74
2022/08/05 10:49:28;;;;;;;11.82;5.63;;;;;;;29.65;41.01;94116.63;4993236;28;20204;-72
2022/08/05 10:52:39;;;;;;;8.32;3.00;;;;;;;30.75;39.82;94115.25;5003359;28;20267;-73
2022/08/05 10:55:25;;;;;;;5.75;2.55;;;;;;;31.16;39.15;94112.28;4997242;28;20204;-74
2022/08/05 10:58:11;;;;;;;23.05;15.23;;;;;;;31.39;38.80;94110.75;5007737;28;20288;-73
2022/08/05 11:00:55;;;;;;;13.85;7.68;;;;;;;32.85;37.67;94109.72;4999352;28;20386;-75
2022/08/05 11:04:14;;;;;;;6.47;2.30;;;;;;;31.09;38.96;94111.59;5000977;28;20676;-73
2022/08/05 11:07:03;;;;;;;32.08;25.40;;;;;;;30.19;40.01;94112.38;4978794;28;20199;-76
2022/08/05 11:09:49;;;;;;;9.70;3.90;;;;;;;30.17;40.91;94115.28;4998351;28;20300;-73
2022/08/05 11:12:33;;;;;;;5.88;2.28;;;;;;;30.21;39.92;94118.91;5003400;28;20235;-75
2022/08/05 11:15:27;;;;;;;9.82;2.88;;;;;;;30.36;41.49;94119.63;5007863;28;20278;-72
2022/08/05 11:18:32;;;;;;;4.57;2.60;;;;;;;29.86;41.21;94123.19;5006934;28;20224;-75
2022/08/05 11:21:32;;;;;;;5.03;2.65;;;;;;;30.65;39.70;94123.97;5002629;28;20208;-73
2022/08/05 11:24:17;;;;;;;6.32;2.85;;;;;;;29.91;40.01;94116.72;4999905;28;20204;-72
2022/08/05 11:27:30;;;;;;;4.22;2.53;;;;;;;29.60;40.53;94115.19;5007475;28;20200;-73
2022/08/05 11:30:15;;;;;;;7.93;3.13;;;;;;;30.38;40.15;94105.88;4998391;28;20204;-73
2022/08/05 11:33:30;;;;;;;7.50;2.20;;;;;;;30.78;38.46;94105.13;5004924;28;20224;-74
2022/08/05 11:36:17;;;;;;;4.32;2.40;;;;;;;31.28;37.85;94101.38;5005597;28;20200;-72
2022/08/05 11:39:02;;;;;;;8.70;4.75;;;;;;;29.69;39.18;94107.97;4990950;28;20207;-77
2022/08/05 11:41:51;;;;;;;3.50;2.00;;;;;;;29.80;41.02;94109.47;5025608;28;20290;-74
2022/08/05 11:44:37;;;;;;;7.53;2.22;;;;;;;29.93;39.95;94105.16;5001197;28;20204;-74
2022/08/05 11:47:24;;;;;;;4.15;2.47;;;;;;;30.22;38.87;94105.91;5002556;28;20463;-74
2022/08/05 11:50:09;;;;;;;6.35;2.95;;;;;;;30.27;39.30;94101.56;4999868;28;20212;-73
2022/08/05 11:52:53;;;;;;;5.72;2.10;;;;;;;29.64;40.98;94103.63;5003252;28;20224;-75
2022/08/05 11:55:52;;;;;;;7.38;3.00;;;;;;;29.21;40.02;94105.66;5004279;28;20215;-73
2022/08/05 11:58:39;;;;;;;7.07;2.72;;;;;;;29.50;39.51;94097.84;4999518;28;20275;-72
2022/08/05 12:01:23;;;;;;;7.57;2.38;;;;;;;29.68;41.37;94092.09;5005890;28;20226;-72
2022/08/05 12:04:07;;;;;;;4.18;2.40;;;;;;;30.00;39.99;94086.38;5003010;28;20216;-73
2022/08/05 12:06:52;;;;;;;7.78;2.25;;;;;;;30.35;37.61;94095.06;5001111;28;20615;-73
2022/08/05 12:09:38;;;;;;;8.30;2.75;;;;;;;29.80;42.20;94097.19;5001396;28;20196;-73
2022/08/05 12:12:26;;;;;;;7.45;2.60;;;;;;;29.63;39.76;94090.63;5009221;28;20282;-73
2022/08/05 12:15:20;;;;;;;7.15;2.10;;;;;;;30.32;39.31;94085.66;5006146;28;20541;-74
2022/08/05 12:18:04;;;;;;;5.85;2.15;;;;;;;30.03;39.94;94084.22;5008359;28;20664;-75
2022/08/05 12:20:49;;;;;;;11.18;2.40;;;;;;;30.05;40.28;94087.84;5004532;28;20208;-74
2022/08/05 12:23:33;;;;;;;4.22;2.42;;;;;;;30.60;40.20;94079.13;4990250;28;20214;-74
2022/08/05 12:26:17;;;;;;;6.85;2.33;;;;;;;30.20;39.11;94079.16;5005712;28;20293;-73
2022/08/05 12:29:06;;;;;;;10.25;2.10;;;;;;;30.54;39.29;94073.38;5007047;28;20208;-73
2022/08/05 12:31:53;;;;;;;5.22;2.70;;;;;;;30.29;40.22;94063.97;4998493;28;20208;-75
2022/08/05 12:34:38;;;;;;;4.03;2.60;;;;;;;30.22;38.21;94068.31;5005347;28;20208;-74
2022/08/05 12:37:22;;;;;;;7.28;2.53;;;;;;;30.74;37.98;94064.63;4999850;28;21043;-72
2022/08/05 12:40:09;;;;;;;2.13;1.92;;;;;;;31.07;38.44;94061.66;5010719;28;20196;-74
2022/08/05 12:42:54;;;;;;;4.47;2.20;;;;;;;31.82;37.65;94061.28;5006889;28;20211;-73
2022/08/05 12:45:52;;;;;;;5.78;2.10;;;;;;;31.23;37.97;94058.69;5004112;28;20196;-74
2022/08/05 12:48:39;;;;;;;8.77;2.88;;;;;;;30.84;37.09;94053.03;5011246;28;20652;-74
2022/08/05 12:51:26;;;;;;;5.22;2.78;;;;;;;30.46;39.54;94047.31;4998525;28;20287;-73
2022/08/05 12:54:26;;;;;;;5.35;2.30;;;;;;;29.14;42.67;94044.28;5004139;28;20208;-73
2022/08/05 12:57:11;;;;;;;5.03;2.75;;;;;;;29.51;43.56;94050.91;5004779;28;20204;-73
2022/08/05 12:59:56;;;;;;;5.72;2.40;;;;;;;29.90;40.34;94042.28;5007366;28;20200;-72
2022/08/05 13:02:40;;;;;;;7.07;2.67;;;;;;;30.64;40.55;94037.91;4995545;28;20250;-73
2022/08/05 13:05:24;;;;;;;2.95;2.35;;;;;;;31.22;38.17;94039.88;5003089;28;20251;-73
2022/08/05 13:08:09;;;;;;;2.92;1.95;;;;;;;31.61;35.66;94043.28;5002250;28;20759;-73